sensor_id;sensor_type;location;lat;lon;timestamp;P1;durP1;ratioP1;P2;durP2;ratioP2
18526;SDS011;9393;42.158;24.748;2023-03-13T00:02:49;8.13;;;4.43;;
18526;SDS011;9393;42.158;24.748;2023-03-13T00:05:58;8.37;;;4.50;;
18526;SDS011;9393;42.158;24.748;2023-03-13T00:09:02;9.87;;;4.70;;
18526;SDS011;9393;42.158;24.748;2023-03-13T00:12:08;7.37;;;4.27;;
18526;SDS011;9393;42.158;24.748;2023-03-13T00:15:12;6.97;;;4.17;;
18526;SDS011;9393;42.158;24.748;2023-03-13T00:18:16;6.80;;;4.37;;
18526;SDS011;9393;42.158;24.748;2023-03-13T00:21:23;5.83;;;4.30;;
18526;SDS011;9393;42.158;24.748;2023-03-13T00:24:28;5.63;;;4.50;;
18526;SDS011;9393;42.158;24.748;2023-03-13T00:27:33;8.13;;;5.63;;
18526;SDS011;9393;42.158;24.748;2023-03-13T00:30:37;7.07;;;4.73;;
18526;SDS011;9393;42.158;24.748;2023-03-13T00:33:42;7.93;;;5.60;;
18526;SDS011;9393;42.158;24.748;2023-03-13T00:36:49;7.33;;;5.47;;
18526;SDS011;9393;42.158;24.748;2023-03-13T00:39:53;7.17;;;5.47;;
18526;SDS011;9393;42.158;24.748;2023-03-13T00:42:57;7.00;;;4.57;;
18526;SDS011;9393;42.158;24.748;2023-03-13T00:46:01;6.60;;;4.87;;
18526;SDS011;9393;42.158;24.748;2023-03-13T00:49:05;8.33;;;5.00;;
18526;SDS011;9393;42.158;24.748;2023-03-13T00:52:11;8.27;;;5.00;;
18526;SDS011;9393;42.158;24.748;2023-03-13T00:55:15;6.03;;;4.33;;
18526;SDS011;9393;42.158;24.748;2023-03-13T00:58:19;7.10;;;5.27;;
18526;SDS011;9393;42.158;24.748;2023-03-13T01:01:25;7.67;;;5.27;;
18526;SDS011;9393;42.158;24.748;2023-03-13T01:04:31;8.77;;;5.00;;
18526;SDS011;9393;42.158;24.748;2023-03-13T01:07:36;7.23;;;5.00;;
18526;SDS011;9393;42.158;24.748;2023-03-13T01:10:40;9.07;;;5.17;;
18526;SDS011;9393;42.158;24.748;2023-03-13T01:13:44;5.10;;;4.30;;
18526;SDS011;9393;42.158;24.748;2023-03-13T01:16:49;8.07;;;5.13;;
18526;SDS011;9393;42.158;24.748;2023-03-13T01:19:54;11.13;;;5.37;;
18526;SDS011;9393;42.158;24.748;2023-03-13T01:22:59;6.03;;;4.50;;
18526;SDS011;9393;42.158;24.748;2023-03-13T01:26:04;6.47;;;4.60;;
18526;SDS011;9393;42.158;24.748;2023-03-13T01:29:09;8.43;;;5.27;;
18526;SDS011;9393;42.158;24.748;2023-03-13T01:32:13;11.23;;;6.20;;
18526;SDS011;9393;42.158;24.748;2023-03-13T01:35:17;11.30;;;5.83;;
18526;SDS011;9393;42.158;24.748;2023-03-13T01:38:23;10.00;;;6.07;;
18526;SDS011;9393;42.158;24.748;2023-03-13T01:41:28;12.10;;;5.40;;
18526;SDS011;9393;42.158;24.748;2023-03-13T01:44:46;8.30;;;5.50;;
18526;SDS011;9393;42.158;24.748;2023-03-13T01:47:52;8.97;;;5.17;;
18526;SDS011;9393;42.158;24.748;2023-03-13T01:51:15;9.80;;;6.40;;
18526;SDS011;9393;42.158;24.748;2023-03-13T01:54:27;8.57;;;5.57;;
18526;SDS011;9393;42.158;24.748;2023-03-13T01:57:34;8.33;;;5.50;;
18526;SDS011;9393;42.158;24.748;2023-03-13T02:00:43;7.30;;;5.30;;
18526;SDS011;9393;42.158;24.748;2023-03-13T02:03:49;7.97;;;5.40;;
18526;SDS011;9393;42.158;24.748;2023-03-13T02:06:54;9.13;;;6.17;;
18526;SDS011;9393;42.158;24.748;2023-03-13T02:10:06;9.07;;;5.50;;
18526;SDS011;9393;42.158;24.748;2023-03-13T02:13:13;10.53;;;5.13;;
18526;SDS011;9393;42.158;24.748;2023-03-13T02:16:19;8.33;;;5.53;;
18526;SDS011;9393;42.158;24.748;2023-03-13T02:19:26;7.07;;;5.47;;
18526;SDS011;9393;42.158;24.748;2023-03-13T02:22:37;11.23;;;5.90;;
18526;SDS011;9393;42.158;24.748;2023-03-13T02:25:49;10.90;;;5.90;;
18526;SDS011;9393;42.158;24.748;2023-03-13T02:29:00;8.60;;;5.60;;
18526;SDS011;9393;42.158;24.748;2023-03-13T02:32:04;8.93;;;5.20;;
18526;SDS011;9393;42.158;24.748;2023-03-13T02:35:10;8.80;;;6.07;;
18526;SDS011;9393;42.158;24.748;2023-03-13T02:38:17;8.27;;;5.43;;
18526;SDS011;9393;42.158;24.748;2023-03-13T02:41:27;9.13;;;6.10;;
18526;SDS011;9393;42.158;24.748;2023-03-13T02:44:36;8.03;;;5.60;;
18526;SDS011;9393;42.158;24.748;2023-03-13T02:47:42;7.83;;;5.53;;
18526;SDS011;9393;42.158;24.748;2023-03-13T02:50:47;8.77;;;5.97;;
18526;SDS011;9393;42.158;24.748;2023-03-13T02:53:52;10.33;;;6.27;;
18526;SDS011;9393;42.158;24.748;2023-03-13T02:57:02;10.43;;;5.53;;
18526;SDS011;9393;42.158;24.748;2023-03-13T03:00:08;8.27;;;5.90;;
18526;SDS011;9393;42.158;24.748;2023-03-13T03:03:14;9.17;;;6.30;;
18526;SDS011;9393;42.158;24.748;2023-03-13T03:06:19;10.03;;;5.90;;
18526;SDS011;9393;42.158;24.748;2023-03-13T03:09:23;12.53;;;5.53;;
18526;SDS011;9393;42.158;24.748;2023-03-13T03:12:33;12.30;;;5.77;;
18526;SDS011;9393;42.158;24.748;2023-03-13T03:15:37;7.30;;;5.27;;
18526;SDS011;9393;42.158;24.748;2023-03-13T03:18:41;10.20;;;5.67;;
18526;SDS011;9393;42.158;24.748;2023-03-13T03:21:46;10.47;;;6.47;;
18526;SDS011;9393;42.158;24.748;2023-03-13T03:24:53;7.97;;;5.30;;
18526;SDS011;9393;42.158;24.748;2023-03-13T03:27:59;9.33;;;5.60;;
18526;SDS011;9393;42.158;24.748;2023-03-13T03:31:03;8.43;;;5.83;;
18526;SDS011;9393;42.158;24.748;2023-03-13T03:34:10;9.83;;;5.57;;
18526;SDS011;9393;42.158;24.748;2023-03-13T03:37:14;7.90;;;5.33;;
18526;SDS011;9393;42.158;24.748;2023-03-13T03:40:18;6.57;;;5.50;;
18526;SDS011;9393;42.158;24.748;2023-03-13T03:43:24;5.90;;;5.23;;
18526;SDS011;9393;42.158;24.748;2023-03-13T03:46:29;7.13;;;5.60;;
18526;SDS011;9393;42.158;24.748;2023-03-13T03:49:33;9.57;;;5.80;;
18526;SDS011;9393;42.158;24.748;2023-03-13T03:52:38;9.90;;;5.73;;
18526;SDS011;9393;42.158;24.748;2023-03-13T03:55:42;9.87;;;5.73;;
18526;SDS011;9393;42.158;24.748;2023-03-13T03:58:48;10.83;;;5.87;;
18526;SDS011;9393;42.158;24.748;2023-03-13T04:02:13;9.43;;;5.90;;
18526;SDS011;9393;42.158;24.748;2023-03-13T04:05:18;8.77;;;6.20;;
18526;SDS011;9393;42.158;24.748;2023-03-13T04:08:23;7.73;;;6.03;;
18526;SDS011;9393;42.158;24.748;2023-03-13T04:11:27;7.40;;;5.47;;
18526;SDS011;9393;42.158;24.748;2023-03-13T04:14:46;9.93;;;6.03;;
18526;SDS011;9393;42.158;24.748;2023-03-13T04:17:50;8.90;;;5.83;;
18526;SDS011;9393;42.158;24.748;2023-03-13T04:20:59;8.53;;;5.50;;
18526;SDS011;9393;42.158;24.748;2023-03-13T04:24:10;7.27;;;5.53;;
18526;SDS011;9393;42.158;24.748;2023-03-13T04:27:15;6.93;;;5.00;;
18526;SDS011;9393;42.158;24.748;2023-03-13T04:30:22;6.87;;;4.83;;
18526;SDS011;9393;42.158;24.748;2023-03-13T04:33:38;7.50;;;5.60;;
18526;SDS011;9393;42.158;24.748;2023-03-13T04:36:52;7.63;;;5.43;;
18526;SDS011;9393;42.158;24.748;2023-03-13T04:40:19;10.83;;;5.90;;
18526;SDS011;9393;42.158;24.748;2023-03-13T04:43:23;12.37;;;5.67;;
18526;SDS011;9393;42.158;24.748;2023-03-13T04:46:38;10.30;;;6.17;;
18526;SDS011;9393;42.158;24.748;2023-03-13T04:49:42;9.30;;;5.50;;
18526;SDS011;9393;42.158;24.748;2023-03-13T04:53:04;9.00;;;6.03;;
18526;SDS011;9393;42.158;24.748;2023-03-13T04:56:38;10.10;;;6.47;;
18526;SDS011;9393;42.158;24.748;2023-03-13T05:00:10;12.73;;;6.57;;
18526;SDS011;9393;42.158;24.748;2023-03-13T05:03:26;15.53;;;7.93;;
18526;SDS011;9393;42.158;24.748;2023-03-13T05:06:41;17.60;;;7.90;;
18526;SDS011;9393;42.158;24.748;2023-03-13T05:10:05;18.30;;;9.03;;
18526;SDS011;9393;42.158;24.748;2023-03-13T05:13:37;17.53;;;10.00;;
18526;SDS011;9393;42.158;24.748;2023-03-13T05:17:16;16.87;;;9.60;;
18526;SDS011;9393;42.158;24.748;2023-03-13T05:20:40;16.70;;;8.53;;
18526;SDS011;9393;42.158;24.748;2023-03-13T05:24:06;12.50;;;8.33;;
18526;SDS011;9393;42.158;24.748;2023-03-13T05:27:18;13.10;;;7.53;;
18526;SDS011;9393;42.158;24.748;2023-03-13T05:30:42;10.27;;;6.60;;
18526;SDS011;9393;42.158;24.748;2023-03-13T05:34:05;9.57;;;6.30;;
18526;SDS011;9393;42.158;24.748;2023-03-13T05:37:48;13.80;;;6.90;;
18526;SDS011;9393;42.158;24.748;2023-03-13T05:41:03;10.80;;;6.37;;
18526;SDS011;9393;42.158;24.748;2023-03-13T05:44:37;13.97;;;6.40;;
18526;SDS011;9393;42.158;24.748;2023-03-13T05:47:53;12.20;;;7.00;;
18526;SDS011;9393;42.158;24.748;2023-03-13T05:51:29;11.67;;;6.80;;
18526;SDS011;9393;42.158;24.748;2023-03-13T05:54:54;11.33;;;6.73;;
18526;SDS011;9393;42.158;24.748;2023-03-13T05:58:13;12.27;;;6.47;;
18526;SDS011;9393;42.158;24.748;2023-03-13T06:01:37;10.40;;;6.17;;
18526;SDS011;9393;42.158;24.748;2023-03-13T06:04:49;9.37;;;6.47;;
18526;SDS011;9393;42.158;24.748;2023-03-13T06:07:53;8.27;;;6.27;;
18526;SDS011;9393;42.158;24.748;2023-03-13T06:10:59;12.90;;;6.83;;
18526;SDS011;9393;42.158;24.748;2023-03-13T06:14:06;11.00;;;6.63;;
18526;SDS011;9393;42.158;24.748;2023-03-13T06:17:19;10.90;;;7.13;;
18526;SDS011;9393;42.158;24.748;2023-03-13T06:20:23;9.70;;;6.40;;
18526;SDS011;9393;42.158;24.748;2023-03-13T06:23:28;11.50;;;7.50;;
18526;SDS011;9393;42.158;24.748;2023-03-13T06:26:33;15.43;;;6.67;;
18526;SDS011;9393;42.158;24.748;2023-03-13T06:29:38;15.17;;;6.67;;
18526;SDS011;9393;42.158;24.748;2023-03-13T06:32:42;7.77;;;5.83;;
18526;SDS011;9393;42.158;24.748;2023-03-13T06:35:46;9.57;;;6.40;;
18526;SDS011;9393;42.158;24.748;2023-03-13T06:38:57;8.70;;;5.30;;
18526;SDS011;9393;42.158;24.748;2023-03-13T06:42:04;11.03;;;6.27;;
18526;SDS011;9393;42.158;24.748;2023-03-13T06:45:09;10.30;;;6.07;;
18526;SDS011;9393;42.158;24.748;2023-03-13T06:48:13;10.40;;;6.63;;
18526;SDS011;9393;42.158;24.748;2023-03-13T06:51:18;8.73;;;6.47;;
18526;SDS011;9393;42.158;24.748;2023-03-13T06:54:24;11.80;;;7.00;;
18526;SDS011;9393;42.158;24.748;2023-03-13T06:57:30;11.03;;;6.87;;
18526;SDS011;9393;42.158;24.748;2023-03-13T07:00:34;9.20;;;6.27;;
18526;SDS011;9393;42.158;24.748;2023-03-13T07:03:41;12.63;;;6.87;;
18526;SDS011;9393;42.158;24.748;2023-03-13T07:06:46;7.50;;;5.63;;
18526;SDS011;9393;42.158;24.748;2023-03-13T07:09:50;9.17;;;5.90;;
18526;SDS011;9393;42.158;24.748;2023-03-13T07:12:55;9.20;;;6.13;;
18526;SDS011;9393;42.158;24.748;2023-03-13T07:16:00;11.00;;;6.70;;
18526;SDS011;9393;42.158;24.748;2023-03-13T07:19:05;10.47;;;6.40;;
18526;SDS011;9393;42.158;24.748;2023-03-13T07:22:10;9.67;;;6.77;;
18526;SDS011;9393;42.158;24.748;2023-03-13T07:25:14;10.00;;;6.50;;
18526;SDS011;9393;42.158;24.748;2023-03-13T07:28:20;11.03;;;6.73;;
18526;SDS011;9393;42.158;24.748;2023-03-13T07:31:24;10.77;;;7.17;;
18526;SDS011;9393;42.158;24.748;2023-03-13T07:34:29;13.47;;;6.90;;
18526;SDS011;9393;42.158;24.748;2023-03-13T07:37:33;14.70;;;7.80;;
18526;SDS011;9393;42.158;24.748;2023-03-13T07:40:38;12.17;;;7.77;;
18526;SDS011;9393;42.158;24.748;2023-03-13T07:43:43;10.67;;;6.80;;
18526;SDS011;9393;42.158;24.748;2023-03-13T07:46:49;11.20;;;7.03;;
18526;SDS011;9393;42.158;24.748;2023-03-13T07:49:53;15.97;;;7.50;;
18526;SDS011;9393;42.158;24.748;2023-03-13T07:52:57;11.07;;;7.60;;
18526;SDS011;9393;42.158;24.748;2023-03-13T07:56:02;11.07;;;7.23;;
18526;SDS011;9393;42.158;24.748;2023-03-13T07:59:09;9.10;;;6.10;;
18526;SDS011;9393;42.158;24.748;2023-03-13T08:02:14;7.13;;;5.50;;
18526;SDS011;9393;42.158;24.748;2023-03-13T08:05:18;6.23;;;4.87;;
18526;SDS011;9393;42.158;24.748;2023-03-13T08:08:22;6.87;;;5.10;;
18526;SDS011;9393;42.158;24.748;2023-03-13T08:11:27;7.30;;;4.70;;
18526;SDS011;9393;42.158;24.748;2023-03-13T08:14:33;7.93;;;5.83;;
18526;SDS011;9393;42.158;24.748;2023-03-13T08:17:37;7.10;;;5.57;;
18526;SDS011;9393;42.158;24.748;2023-03-13T08:20:41;7.63;;;5.17;;
18526;SDS011;9393;42.158;24.748;2023-03-13T08:23:46;7.03;;;5.43;;
18526;SDS011;9393;42.158;24.748;2023-03-13T08:26:51;6.93;;;5.50;;
18526;SDS011;9393;42.158;24.748;2023-03-13T08:29:57;5.83;;;4.73;;
18526;SDS011;9393;42.158;24.748;2023-03-13T08:33:01;7.10;;;4.83;;
18526;SDS011;9393;42.158;24.748;2023-03-13T08:36:09;8.77;;;5.80;;
18526;SDS011;9393;42.158;24.748;2023-03-13T08:39:15;9.90;;;5.47;;
18526;SDS011;9393;42.158;24.748;2023-03-13T08:42:20;5.70;;;4.80;;
18526;SDS011;9393;42.158;24.748;2023-03-13T08:45:26;6.77;;;4.53;;
18526;SDS011;9393;42.158;24.748;2023-03-13T08:48:30;7.30;;;5.17;;
18526;SDS011;9393;42.158;24.748;2023-03-13T08:51:35;7.10;;;4.33;;
18526;SDS011;9393;42.158;24.748;2023-03-13T08:54:40;5.63;;;4.60;;
18526;SDS011;9393;42.158;24.748;2023-03-13T08:57:44;6.77;;;4.87;;
18526;SDS011;9393;42.158;24.748;2023-03-13T09:00:50;6.43;;;4.60;;
18526;SDS011;9393;42.158;24.748;2023-03-13T09:03:54;6.07;;;3.33;;
18526;SDS011;9393;42.158;24.748;2023-03-13T09:07:02;4.77;;;3.70;;
18526;SDS011;9393;42.158;24.748;2023-03-13T09:10:07;3.97;;;3.53;;
18526;SDS011;9393;42.158;24.748;2023-03-13T09:13:12;7.33;;;3.67;;
18526;SDS011;9393;42.158;24.748;2023-03-13T09:16:18;5.00;;;3.50;;
18526;SDS011;9393;42.158;24.748;2023-03-13T09:19:23;5.37;;;4.30;;
18526;SDS011;9393;42.158;24.748;2023-03-13T09:22:28;6.33;;;4.30;;
18526;SDS011;9393;42.158;24.748;2023-03-13T09:25:32;5.10;;;3.70;;
18526;SDS011;9393;42.158;24.748;2023-03-13T09:28:36;10.40;;;4.53;;
18526;SDS011;9393;42.158;24.748;2023-03-13T09:31:44;5.37;;;4.23;;
18526;SDS011;9393;42.158;24.748;2023-03-13T09:34:49;6.77;;;4.13;;
18526;SDS011;9393;42.158;24.748;2023-03-13T09:37:53;5.77;;;4.37;;
18526;SDS011;9393;42.158;24.748;2023-03-13T09:41:00;8.60;;;3.80;;
18526;SDS011;9393;42.158;24.748;2023-03-13T09:44:10;6.43;;;4.07;;
18526;SDS011;9393;42.158;24.748;2023-03-13T09:47:23;5.67;;;3.93;;
18526;SDS011;9393;42.158;24.748;2023-03-13T09:50:33;6.17;;;3.93;;
18526;SDS011;9393;42.158;24.748;2023-03-13T09:53:40;6.00;;;3.97;;
18526;SDS011;9393;42.158;24.748;2023-03-13T09:57:04;7.53;;;4.40;;
18526;SDS011;9393;42.158;24.748;2023-03-13T10:00:16;5.77;;;4.30;;
18526;SDS011;9393;42.158;24.748;2023-03-13T10:03:26;7.77;;;4.17;;
18526;SDS011;9393;42.158;24.748;2023-03-13T10:06:34;7.20;;;3.80;;
18526;SDS011;9393;42.158;24.748;2023-03-13T10:09:41;7.23;;;4.53;;
18526;SDS011;9393;42.158;24.748;2023-03-13T10:12:46;4.93;;;4.07;;
18526;SDS011;9393;42.158;24.748;2023-03-13T10:15:52;6.33;;;4.27;;
18526;SDS011;9393;42.158;24.748;2023-03-13T10:19:08;11.00;;;4.50;;
18526;SDS011;9393;42.158;24.748;2023-03-13T10:22:17;8.50;;;4.37;;
18526;SDS011;9393;42.158;24.748;2023-03-13T10:25:31;4.40;;;3.30;;
18526;SDS011;9393;42.158;24.748;2023-03-13T10:28:37;4.10;;;3.30;;
18526;SDS011;9393;42.158;24.748;2023-03-13T10:31:41;4.17;;;3.30;;
18526;SDS011;9393;42.158;24.748;2023-03-13T10:34:58;4.07;;;2.80;;
18526;SDS011;9393;42.158;24.748;2023-03-13T10:38:05;4.40;;;2.87;;
18526;SDS011;9393;42.158;24.748;2023-03-13T10:41:26;7.87;;;3.30;;
18526;SDS011;9393;42.158;24.748;2023-03-13T10:44:32;4.77;;;2.43;;
18526;SDS011;9393;42.158;24.748;2023-03-13T10:47:36;4.43;;;2.60;;
18526;SDS011;9393;42.158;24.748;2023-03-13T10:50:43;5.50;;;3.20;;
18526;SDS011;9393;42.158;24.748;2023-03-13T10:53:48;3.93;;;3.53;;
18526;SDS011;9393;42.158;24.748;2023-03-13T10:57:07;4.37;;;3.10;;
18526;SDS011;9393;42.158;24.748;2023-03-13T11:00:38;7.23;;;3.10;;
18526;SDS011;9393;42.158;24.748;2023-03-13T11:03:45;3.20;;;2.47;;
18526;SDS011;9393;42.158;24.748;2023-03-13T11:06:54;4.87;;;2.67;;
18526;SDS011;9393;42.158;24.748;2023-03-13T11:10:13;4.23;;;2.83;;
18526;SDS011;9393;42.158;24.748;2023-03-13T11:13:28;3.60;;;3.00;;
18526;SDS011;9393;42.158;24.748;2023-03-13T11:16:40;3.13;;;2.77;;
18526;SDS011;9393;42.158;24.748;2023-03-13T11:19:54;3.63;;;3.27;;
18526;SDS011;9393;42.158;24.748;2023-03-13T11:23:13;4.00;;;3.40;;
18526;SDS011;9393;42.158;24.748;2023-03-13T11:26:23;6.87;;;4.60;;
18526;SDS011;9393;42.158;24.748;2023-03-13T11:29:37;4.17;;;3.13;;
18526;SDS011;9393;42.158;24.748;2023-03-13T11:32:50;5.90;;;3.57;;
18526;SDS011;9393;42.158;24.748;2023-03-13T11:35:59;3.47;;;2.90;;
18526;SDS011;9393;42.158;24.748;2023-03-13T11:39:13;3.43;;;2.90;;
18526;SDS011;9393;42.158;24.748;2023-03-13T11:42:46;5.47;;;3.17;;
18526;SDS011;9393;42.158;24.748;2023-03-13T11:46:28;3.70;;;2.93;;
18526;SDS011;9393;42.158;24.748;2023-03-13T11:49:52;5.40;;;3.13;;
18526;SDS011;9393;42.158;24.748;2023-03-13T11:53:09;4.13;;;3.20;;
18526;SDS011;9393;42.158;24.748;2023-03-13T11:56:34;3.50;;;3.07;;
18526;SDS011;9393;42.158;24.748;2023-03-13T11:59:46;5.63;;;3.10;;
18526;SDS011;9393;42.158;24.748;2023-03-13T12:03:00;3.73;;;2.93;;
18526;SDS011;9393;42.158;24.748;2023-03-13T12:06:13;4.80;;;3.00;;
18526;SDS011;9393;42.158;24.748;2023-03-13T12:09:30;4.20;;;2.53;;
18526;SDS011;9393;42.158;24.748;2023-03-13T12:12:40;5.33;;;2.67;;
18526;SDS011;9393;42.158;24.748;2023-03-13T12:15:49;3.53;;;2.80;;
18526;SDS011;9393;42.158;24.748;2023-03-13T12:18:57;6.23;;;2.70;;
18526;SDS011;9393;42.158;24.748;2023-03-13T12:22:05;4.23;;;2.83;;
18526;SDS011;9393;42.158;24.748;2023-03-13T12:25:18;3.07;;;2.60;;
18526;SDS011;9393;42.158;24.748;2023-03-13T12:28:30;2.80;;;2.47;;
18526;SDS011;9393;42.158;24.748;2023-03-13T12:31:41;3.67;;;2.90;;
18526;SDS011;9393;42.158;24.748;2023-03-13T12:34:55;3.07;;;2.60;;
18526;SDS011;9393;42.158;24.748;2023-03-13T12:38:07;2.83;;;2.50;;
18526;SDS011;9393;42.158;24.748;2023-03-13T12:41:18;3.10;;;2.80;;
18526;SDS011;9393;42.158;24.748;2023-03-13T12:44:30;3.97;;;3.10;;
18526;SDS011;9393;42.158;24.748;2023-03-13T12:47:50;5.80;;;3.00;;
18526;SDS011;9393;42.158;24.748;2023-03-13T12:51:16;3.53;;;2.53;;
18526;SDS011;9393;42.158;24.748;2023-03-13T12:54:40;3.53;;;2.60;;
18526;SDS011;9393;42.158;24.748;2023-03-13T12:58:08;3.77;;;2.90;;
18526;SDS011;9393;42.158;24.748;2023-03-13T13:01:28;4.37;;;2.80;;
18526;SDS011;9393;42.158;24.748;2023-03-13T13:04:40;2.90;;;2.33;;
18526;SDS011;9393;42.158;24.748;2023-03-13T13:07:51;2.87;;;2.57;;
18526;SDS011;9393;42.158;24.748;2023-03-13T13:18:02;3.33;;;2.70;;
18526;SDS011;9393;42.158;24.748;2023-03-13T13:21:19;4.50;;;2.87;;
18526;SDS011;9393;42.158;24.748;2023-03-13T13:24:40;4.43;;;3.20;;
18526;SDS011;9393;42.158;24.748;2023-03-13T13:27:52;4.40;;;3.03;;
18526;SDS011;9393;42.158;24.748;2023-03-13T13:30:59;2.77;;;2.47;;
18526;SDS011;9393;42.158;24.748;2023-03-13T13:34:06;5.87;;;4.70;;
18526;SDS011;9393;42.158;24.748;2023-03-13T13:37:25;4.60;;;3.10;;
18526;SDS011;9393;42.158;24.748;2023-03-13T13:40:31;6.40;;;2.80;;
18526;SDS011;9393;42.158;24.748;2023-03-13T13:43:36;5.07;;;3.13;;
18526;SDS011;9393;42.158;24.748;2023-03-13T13:46:43;7.00;;;3.20;;
18526;SDS011;9393;42.158;24.748;2023-03-13T13:49:53;3.97;;;2.90;;
18526;SDS011;9393;42.158;24.748;2023-03-13T13:56:42;4.60;;;2.90;;
18526;SDS011;9393;42.158;24.748;2023-03-13T13:59:50;2.93;;;2.50;;
18526;SDS011;9393;42.158;24.748;2023-03-13T14:02:58;5.43;;;3.43;;
18526;SDS011;9393;42.158;24.748;2023-03-13T14:06:17;4.07;;;2.97;;
18526;SDS011;9393;42.158;24.748;2023-03-13T14:09:28;4.57;;;3.00;;
18526;SDS011;9393;42.158;24.748;2023-03-13T14:12:38;4.10;;;2.73;;
18526;SDS011;9393;42.158;24.748;2023-03-13T14:15:43;2.57;;;2.30;;
18526;SDS011;9393;42.158;24.748;2023-03-13T14:18:49;2.90;;;2.60;;
18526;SDS011;9393;42.158;24.748;2023-03-13T14:21:59;6.60;;;3.10;;
18526;SDS011;9393;42.158;24.748;2023-03-13T14:25:04;3.03;;;2.57;;
18526;SDS011;9393;42.158;24.748;2023-03-13T14:28:19;3.33;;;2.90;;
18526;SDS011;9393;42.158;24.748;2023-03-13T14:31:26;62.13;;;21.93;;
18526;SDS011;9393;42.158;24.748;2023-03-13T14:34:32;10.97;;;5.83;;
18526;SDS011;9393;42.158;24.748;2023-03-13T14:37:40;8.27;;;5.37;;
18526;SDS011;9393;42.158;24.748;2023-03-13T14:40:46;4.37;;;2.77;;
18526;SDS011;9393;42.158;24.748;2023-03-13T14:43:50;3.23;;;2.53;;
18526;SDS011;9393;42.158;24.748;2023-03-13T14:46:55;6.90;;;2.90;;
18526;SDS011;9393;42.158;24.748;2023-03-13T14:50:02;5.00;;;2.83;;
18526;SDS011;9393;42.158;24.748;2023-03-13T14:53:15;5.23;;;3.00;;
18526;SDS011;9393;42.158;24.748;2023-03-13T14:56:28;5.47;;;3.00;;
18526;SDS011;9393;42.158;24.748;2023-03-13T14:59:35;3.97;;;2.90;;
18526;SDS011;9393;42.158;24.748;2023-03-13T15:02:39;3.47;;;2.67;;
18526;SDS011;9393;42.158;24.748;2023-03-13T15:05:44;3.73;;;3.00;;
18526;SDS011;9393;42.158;24.748;2023-03-13T15:12:21;3.10;;;2.77;;
18526;SDS011;9393;42.158;24.748;2023-03-13T15:15:26;3.10;;;2.77;;
18526;SDS011;9393;42.158;24.748;2023-03-13T15:18:31;4.33;;;3.23;;
18526;SDS011;9393;42.158;24.748;2023-03-13T15:21:37;3.60;;;2.70;;
18526;SDS011;9393;42.158;24.748;2023-03-13T15:24:44;3.33;;;3.00;;
18526;SDS011;9393;42.158;24.748;2023-03-13T15:28:08;3.80;;;2.50;;
18526;SDS011;9393;42.158;24.748;2023-03-13T15:31:17;3.40;;;2.60;;
18526;SDS011;9393;42.158;24.748;2023-03-13T15:34:25;3.90;;;2.93;;
18526;SDS011;9393;42.158;24.748;2023-03-13T15:37:30;4.70;;;2.80;;
18526;SDS011;9393;42.158;24.748;2023-03-13T15:40:38;4.07;;;3.00;;
18526;SDS011;9393;42.158;24.748;2023-03-13T15:43:42;5.60;;;2.30;;
18526;SDS011;9393;42.158;24.748;2023-03-13T15:46:47;3.60;;;2.50;;
18526;SDS011;9393;42.158;24.748;2023-03-13T15:49:51;6.00;;;3.03;;
18526;SDS011;9393;42.158;24.748;2023-03-13T15:52:55;5.60;;;3.03;;
18526;SDS011;9393;42.158;24.748;2023-03-13T15:56:09;4.37;;;2.90;;
18526;SDS011;9393;42.158;24.748;2023-03-13T15:59:16;6.10;;;3.37;;
18526;SDS011;9393;42.158;24.748;2023-03-13T16:02:22;4.00;;;2.93;;
18526;SDS011;9393;42.158;24.748;2023-03-13T16:05:26;4.67;;;2.60;;
18526;SDS011;9393;42.158;24.748;2023-03-13T16:08:31;3.43;;;2.50;;
18526;SDS011;9393;42.158;24.748;2023-03-13T16:11:39;4.57;;;2.50;;
18526;SDS011;9393;42.158;24.748;2023-03-13T16:14:43;3.57;;;2.60;;
18526;SDS011;9393;42.158;24.748;2023-03-13T16:17:48;4.47;;;3.23;;
18526;SDS011;9393;42.158;24.748;2023-03-13T16:20:52;2.90;;;2.60;;
18526;SDS011;9393;42.158;24.748;2023-03-13T16:23:57;3.03;;;2.57;;
18526;SDS011;9393;42.158;24.748;2023-03-13T16:27:04;4.73;;;2.87;;
18526;SDS011;9393;42.158;24.748;2023-03-13T16:30:15;7.93;;;5.60;;
18526;SDS011;9393;42.158;24.748;2023-03-13T16:33:21;6.60;;;3.97;;
18526;SDS011;9393;42.158;24.748;2023-03-13T16:36:26;4.77;;;2.60;;
18526;SDS011;9393;42.158;24.748;2023-03-13T16:39:32;8.30;;;3.10;;
18526;SDS011;9393;42.158;24.748;2023-03-13T16:42:38;5.90;;;2.90;;
18526;SDS011;9393;42.158;24.748;2023-03-13T16:45:42;5.57;;;3.10;;
18526;SDS011;9393;42.158;24.748;2023-03-13T16:48:48;7.30;;;3.47;;
18526;SDS011;9393;42.158;24.748;2023-03-13T16:51:54;7.13;;;4.30;;
18526;SDS011;9393;42.158;24.748;2023-03-13T16:54:58;6.70;;;4.27;;
18526;SDS011;9393;42.158;24.748;2023-03-13T16:58:04;6.73;;;4.20;;
18526;SDS011;9393;42.158;24.748;2023-03-13T17:01:08;11.50;;;6.07;;
18526;SDS011;9393;42.158;24.748;2023-03-13T17:04:12;35.83;;;30.17;;
18526;SDS011;9393;42.158;24.748;2023-03-13T17:07:17;14.40;;;8.50;;
18526;SDS011;9393;42.158;24.748;2023-03-13T17:10:25;13.33;;;7.50;;
18526;SDS011;9393;42.158;24.748;2023-03-13T17:13:32;20.53;;;10.07;;
18526;SDS011;9393;42.158;24.748;2023-03-13T17:16:37;13.17;;;8.73;;
18526;SDS011;9393;42.158;24.748;2023-03-13T17:19:44;17.37;;;10.43;;
18526;SDS011;9393;42.158;24.748;2023-03-13T17:22:48;16.00;;;9.07;;
18526;SDS011;9393;42.158;24.748;2023-03-13T17:25:52;18.03;;;10.10;;
18526;SDS011;9393;42.158;24.748;2023-03-13T17:28:58;18.80;;;9.73;;
18526;SDS011;9393;42.158;24.748;2023-03-13T17:32:03;17.70;;;9.83;;
18526;SDS011;9393;42.158;24.748;2023-03-13T17:35:08;16.47;;;10.13;;
18526;SDS011;9393;42.158;24.748;2023-03-13T17:38:12;16.33;;;8.07;;
18526;SDS011;9393;42.158;24.748;2023-03-13T17:41:26;14.03;;;6.67;;
18526;SDS011;9393;42.158;24.748;2023-03-13T17:44:32;24.43;;;14.30;;
18526;SDS011;9393;42.158;24.748;2023-03-13T17:47:37;13.70;;;9.47;;
18526;SDS011;9393;42.158;24.748;2023-03-13T17:50:41;24.60;;;15.03;;
18526;SDS011;9393;42.158;24.748;2023-03-13T17:53:46;51.03;;;28.60;;
18526;SDS011;9393;42.158;24.748;2023-03-13T17:56:51;21.47;;;10.90;;
18526;SDS011;9393;42.158;24.748;2023-03-13T17:59:59;19.57;;;10.27;;
18526;SDS011;9393;42.158;24.748;2023-03-13T18:03:12;35.47;;;18.10;;
18526;SDS011;9393;42.158;24.748;2023-03-13T18:06:18;27.93;;;14.17;;
18526;SDS011;9393;42.158;24.748;2023-03-13T18:09:24;27.40;;;14.13;;
18526;SDS011;9393;42.158;24.748;2023-03-13T18:12:28;29.23;;;16.97;;
18526;SDS011;9393;42.158;24.748;2023-03-13T18:15:33;22.00;;;10.93;;
18526;SDS011;9393;42.158;24.748;2023-03-13T18:18:38;37.07;;;16.87;;
18526;SDS011;9393;42.158;24.748;2023-03-13T18:21:42;40.97;;;17.40;;
18526;SDS011;9393;42.158;24.748;2023-03-13T18:24:47;38.00;;;17.37;;
18526;SDS011;9393;42.158;24.748;2023-03-13T18:27:51;14.67;;;6.73;;
18526;SDS011;9393;42.158;24.748;2023-03-13T18:30:57;15.10;;;7.20;;
18526;SDS011;9393;42.158;24.748;2023-03-13T18:34:02;43.83;;;23.10;;
18526;SDS011;9393;42.158;24.748;2023-03-13T18:37:10;26.83;;;13.63;;
18526;SDS011;9393;42.158;24.748;2023-03-13T18:40:23;26.87;;;14.37;;
18526;SDS011;9393;42.158;24.748;2023-03-13T18:43:29;94.67;;;46.93;;
18526;SDS011;9393;42.158;24.748;2023-03-13T18:46:35;51.10;;;25.73;;
18526;SDS011;9393;42.158;24.748;2023-03-13T18:49:39;20.93;;;11.40;;
18526;SDS011;9393;42.158;24.748;2023-03-13T18:52:44;18.43;;;9.90;;
18526;SDS011;9393;42.158;24.748;2023-03-13T18:55:48;19.83;;;11.07;;
18526;SDS011;9393;42.158;24.748;2023-03-13T18:58:53;42.27;;;22.43;;
18526;SDS011;9393;42.158;24.748;2023-03-13T19:01:59;24.50;;;14.33;;
18526;SDS011;9393;42.158;24.748;2023-03-13T19:05:04;20.43;;;11.10;;
18526;SDS011;9393;42.158;24.748;2023-03-13T19:08:09;13.03;;;8.40;;